createdAt,value
2019-01-06T00:03:16.236Z,14.33
2019-01-06T00:07:00.972Z,15.67
2019-01-06T00:10:43.774Z,19.80
2019-01-06T00:14:26.742Z,28.83
2019-01-06T00:18:26.412Z,16.83
2019-01-06T00:22:19.972Z,13.20
2019-01-06T00:26:07.510Z,15.80
2019-01-06T00:30:04.140Z,14.60
2019-01-06T00:34:06.793Z,17.73
2019-01-06T00:37:51.250Z,19.07
2019-01-06T00:41:34.303Z,15.73
2019-01-06T00:45:17.737Z,24.47
2019-01-06T00:49:02.182Z,18.17
2019-01-06T00:52:44.971Z,18.87
2019-01-06T00:56:47.522Z,23.60
2019-01-06T01:00:34.018Z,21.13
2019-01-06T01:04:17.056Z,19.67
2019-01-06T01:08:04.804Z,19.97
2019-01-06T01:12:01.061Z,20.57
2019-01-06T01:15:46.769Z,19.13
2019-01-06T01:19:36.160Z,16.83
2019-01-06T01:23:11.208Z,19.60
2019-01-06T01:27:04.858Z,15.70
2019-01-06T01:30:52.090Z,19.93
2019-01-06T01:34:31.355Z,20.33
2019-01-06T01:38:24.804Z,20.87
2019-01-06T01:42:09.255Z,23.90
2019-01-06T01:45:56.472Z,25.47
2019-01-06T01:49:52.972Z,18.10
2019-01-06T01:53:35.110Z,19.67
2019-01-06T01:57:37.829Z,19.37
2019-01-06T02:01:16.840Z,21.53
2019-01-06T02:05:00.082Z,17.73
2019-01-06T02:08:50.436Z,23.20
2019-01-06T02:12:40.674Z,17.93
2019-01-06T02:16:40.048Z,16.77
2019-01-06T02:20:33.452Z,21.93
2019-01-06T02:24:32.839Z,22.77
2019-01-06T02:28:15.692Z,23.40
2019-01-06T02:32:03.119Z,28.67
2019-01-06T02:35:50.350Z,16.50
2019-01-06T02:39:29.848Z,19.90
2019-01-06T02:43:15.222Z,24.67
2019-01-06T02:47:09.616Z,21.07
2019-01-06T02:50:54.072Z,22.60
2019-01-06T02:54:48.006Z,25.40
2019-01-06T02:58:35.504Z,19.10
2019-01-06T03:02:22.689Z,23.30
2019-01-06T03:06:22.358Z,18.67
2019-01-06T03:10:09.839Z,16.57
2019-01-06T03:13:46.166Z,18.87
2019-01-06T03:17:30.600Z,17.93
2019-01-06T03:21:15.070Z,15.53
2019-01-06T03:25:05.530Z,24.33
2019-01-06T03:28:57.903Z,15.20
2019-01-06T03:32:40.901Z,14.67
2019-01-06T03:36:31.399Z,17.83
2019-01-06T03:40:14.625Z,18.40
2019-01-06T03:43:57.512Z,18.53
2019-01-06T03:47:51.293Z,10.70
2019-01-06T03:51:38.781Z,11.30
2019-01-06T03:55:41.541Z,16.67
2019-01-06T03:59:29.041Z,17.87
2019-01-06T04:03:11.987Z,17.03
2019-01-06T04:06:54.852Z,14.33
2019-01-06T04:10:37.678Z,16.00
2019-01-06T04:14:20.878Z,12.87
2019-01-06T04:18:11.381Z,14.47
2019-01-06T04:21:54.437Z,17.87
2019-01-06T04:25:38.885Z,12.43
2019-01-06T04:29:28.816Z,17.83
2019-01-06T04:33:19.361Z,14.03
2019-01-06T04:37:03.847Z,19.37
2019-01-06T04:41:04.110Z,14.93
2019-01-06T04:44:42.284Z,17.67
2019-01-06T04:48:25.213Z,17.17
2019-01-06T04:52:12.788Z,13.13
2019-01-06T04:55:57.310Z,17.47
2019-01-06T04:59:44.604Z,11.53
2019-01-06T05:03:44.210Z,11.40
2019-01-06T05:07:41.104Z,14.23
2019-01-06T05:11:25.566Z,17.53
2019-01-06T05:15:10.032Z,12.87
2019-01-06T05:18:53.155Z,15.93
2019-01-06T05:22:53.285Z,18.80
2019-01-06T05:26:42.393Z,13.07
2019-01-06T05:30:25.728Z,13.80
2019-01-06T05:34:08.797Z,15.07
2019-01-06T05:37:52.106Z,12.60
2019-01-06T05:41:48.476Z,13.33
2019-01-06T05:45:50.970Z,17.17
2019-01-06T05:49:34.000Z,19.90
2019-01-06T05:53:30.718Z,12.00
2019-01-06T05:57:27.130Z,14.40
2019-01-06T06:01:17.594Z,13.00
2019-01-06T06:05:17.275Z,12.80
2019-01-06T06:09:01.738Z,10.30
2019-01-06T06:12:50.921Z,10.17
2019-01-06T06:16:35.381Z,12.90
2019-01-06T06:20:25.616Z,12.87
2019-01-06T06:24:08.688Z,15.10
2019-01-06T06:28:11.068Z,9.07
2019-01-06T06:31:49.253Z,12.10
2019-01-06T06:35:32.329Z,11.97
2019-01-06T06:39:19.593Z,17.17
2019-01-06T06:43:04.049Z,13.40
2019-01-06T06:46:46.889Z,13.77
2019-01-06T06:50:29.702Z,13.23
2019-01-06T06:54:14.685Z,15.53
2019-01-06T06:58:40.139Z,20.63
2019-01-06T07:03:13.260Z,15.37
2019-01-06T07:06:57.669Z,16.90
2019-01-06T07:10:42.157Z,14.30
2019-01-06T07:14:38.485Z,19.33
2019-01-06T07:18:34.657Z,23.60
2019-01-06T07:22:15.851Z,16.37
2019-01-06T07:26:00.669Z,17.10
2019-01-06T07:29:52.182Z,20.97
2019-01-06T07:33:39.452Z,24.30
2019-01-06T07:37:39.271Z,28.43
2019-01-06T07:41:32.643Z,20.33
2019-01-06T07:45:15.878Z,19.33
2019-01-06T07:49:00.653Z,16.63
2019-01-06T07:52:43.562Z,18.90
2019-01-06T07:56:24.772Z,16.70
2019-01-06T08:00:01.937Z,13.80
2019-01-06T08:03:55.782Z,16.50
2019-01-06T08:07:49.332Z,16.17
2019-01-06T08:11:32.439Z,16.07
2019-01-06T08:15:18.499Z,18.97
2019-01-06T08:19:08.565Z,14.67
2019-01-06T08:23:08.146Z,19.30
2019-01-06T08:27:02.973Z,14.30
2019-01-06T08:31:02.636Z,20.10
2019-01-06T08:34:52.183Z,17.50
2019-01-06T08:38:35.299Z,15.53
2019-01-06T08:42:28.681Z,13.33
2019-01-06T08:46:13.077Z,15.20
2019-01-06T08:49:56.657Z,20.10
2019-01-06T08:53:50.225Z,11.97
2019-01-06T08:57:50.331Z,14.67
2019-01-06T09:01:39.777Z,17.17
2019-01-06T09:05:31.814Z,20.60
2019-01-06T09:09:12.489Z,13.90
2019-01-06T09:13:15.105Z,14.70
2019-01-06T09:16:58.019Z,15.20
2019-01-06T09:20:45.742Z,18.17
2019-01-06T09:24:27.089Z,11.77
2019-01-06T09:28:29.524Z,14.43
2019-01-06T09:32:26.279Z,14.33
2019-01-06T09:36:09.370Z,16.67
2019-01-06T09:39:56.897Z,14.77
2019-01-06T09:43:40.183Z,12.47
2019-01-06T09:50:50.922Z,13.93
2019-01-06T09:54:38.217Z,11.23
2019-01-06T09:58:34.861Z,12.30
2019-01-06T10:02:14.926Z,14.87
2019-01-06T10:06:03.586Z,13.17
2019-01-06T10:09:59.941Z,16.40
2019-01-06T10:13:56.482Z,11.20
2019-01-06T10:17:46.709Z,10.43
2019-01-06T10:21:43.090Z,12.17
2019-01-06T10:25:33.419Z,12.37
2019-01-06T10:29:17.844Z,11.30
2019-01-06T10:33:04.999Z,10.03
2019-01-06T10:36:48.245Z,9.07
2019-01-06T10:40:25.973Z,12.57
2019-01-06T10:44:04.744Z,13.50
2019-01-06T10:48:04.160Z,11.53
2019-01-06T10:51:47.230Z,11.03
2019-01-06T10:55:49.693Z,14.53
2019-01-06T10:59:40.069Z,9.73
2019-01-06T11:03:22.956Z,11.70
2019-01-06T11:07:12.678Z,14.30
2019-01-06T11:10:57.166Z,11.63
2019-01-06T11:14:53.775Z,11.90
2019-01-06T11:18:44.238Z,11.30
2019-01-06T11:22:30.126Z,10.63
2019-01-06T11:26:13.126Z,9.97
2019-01-06T11:30:09.603Z,10.00
2019-01-06T11:34:09.394Z,9.33
2019-01-06T11:37:59.859Z,12.17
2019-01-06T11:41:51.549Z,9.60
2019-01-06T11:45:51.187Z,12.93
2019-01-06T11:49:34.286Z,5.67
2019-01-06T11:53:14.474Z,8.23
2019-01-06T11:56:57.319Z,9.80
2019-01-06T12:00:40.494Z,8.27
2019-01-06T12:04:27.886Z,10.23
2019-01-06T12:08:21.459Z,7.33
2019-01-06T12:12:07.058Z,7.87
2019-01-06T12:16:01.389Z,8.70
2019-01-06T12:19:44.545Z,7.73
2019-01-06T12:23:27.385Z,6.93
2019-01-06T12:27:17.910Z,22.90
2019-01-06T12:31:02.356Z,12.10
2019-01-06T12:34:47.129Z,8.20
2019-01-06T12:38:30.385Z,9.77
2019-01-06T12:42:18.127Z,8.03
2019-01-06T12:46:03.373Z,11.53
2019-01-06T12:49:47.827Z,8.10
2019-01-06T12:53:38.946Z,10.30
2019-01-06T12:57:20.862Z,7.13
2019-01-06T13:01:09.460Z,8.50
2019-01-06T13:04:58.696Z,6.60
2019-01-06T13:08:41.945Z,7.90
2019-01-06T13:12:32.913Z,13.23
2019-01-06T13:16:15.870Z,5.07
2019-01-06T13:20:12.091Z,7.97
2019-01-06T13:23:56.626Z,11.33
2019-01-06T13:27:56.746Z,10.90
2019-01-06T13:31:39.631Z,8.20
2019-01-06T13:35:42.274Z,9.90
2019-01-06T13:39:24.257Z,4.93
2019-01-06T13:43:02.061Z,4.03
2019-01-06T13:46:49.518Z,5.93
2019-01-06T13:50:38.492Z,7.30
2019-01-06T13:54:30.081Z,12.73
2019-01-06T13:58:09.890Z,5.13
2019-01-06T14:01:52.822Z,7.67
2019-01-06T14:05:35.628Z,7.57
2019-01-06T14:09:18.727Z,10.90
2019-01-06T14:13:02.036Z,7.20
2019-01-06T14:16:52.264Z,4.07
2019-01-06T14:20:35.739Z,8.07
2019-01-06T14:24:29.046Z,8.57
2019-01-06T14:28:12.225Z,4.37
2019-01-06T14:31:55.062Z,4.33
2019-01-06T14:35:39.791Z,3.87
2019-01-06T14:39:28.162Z,3.80
2019-01-06T14:43:11.348Z,7.50
2019-01-06T14:47:07.844Z,5.87
2019-01-06T14:50:50.743Z,6.80
2019-01-06T14:54:35.288Z,7.17
2019-01-06T14:58:27.993Z,6.03
2019-01-06T15:02:23.176Z,6.53
2019-01-06T15:06:13.771Z,5.17
2019-01-06T15:10:13.197Z,8.33
2019-01-06T15:14:06.816Z,7.53
2019-01-06T15:17:49.631Z,4.63
2019-01-06T15:21:52.064Z,7.33
2019-01-06T15:25:35.482Z,8.20
2019-01-06T15:29:38.505Z,5.97
2019-01-06T15:33:32.030Z,6.53
2019-01-06T15:37:19.773Z,8.50
2019-01-06T15:41:07.131Z,9.73
2019-01-06T15:44:57.467Z,6.90
2019-01-06T15:48:44.930Z,10.83
2019-01-06T15:52:28.084Z,11.63
2019-01-06T15:56:30.494Z,12.90
2019-01-06T16:00:29.838Z,11.63
2019-01-06T16:04:13.094Z,7.03
2019-01-06T16:07:56.247Z,13.73
2019-01-06T16:11:39.341Z,14.40
2019-01-06T16:15:22.541Z,11.97
2019-01-06T16:19:05.529Z,10.63
2019-01-06T16:22:48.744Z,12.57
2019-01-06T16:26:25.095Z,12.03
2019-01-06T16:30:27.528Z,12.93
2019-01-06T16:34:12.147Z,12.50
2019-01-06T16:38:11.812Z,16.13
2019-01-06T16:41:54.994Z,20.17
2019-01-06T16:45:38.163Z,19.30
2019-01-06T16:49:21.217Z,19.00
2019-01-06T16:53:20.817Z,13.73
2019-01-06T16:57:15.285Z,16.33
2019-01-06T17:01:10.131Z,16.70
2019-01-06T17:04:53.804Z,20.63
2019-01-06T17:08:53.391Z,21.00
2019-01-06T17:12:39.525Z,24.47
2019-01-06T17:16:24.062Z,20.77
2019-01-06T17:20:08.510Z,21.23
2019-01-06T17:23:51.584Z,23.47
2019-01-06T17:27:47.875Z,21.73
2019-01-06T17:31:30.734Z,24.53
2019-01-06T17:35:18.203Z,22.40
2019-01-06T17:39:02.694Z,24.53
2019-01-06T17:42:45.789Z,23.57
2019-01-06T17:46:28.896Z,25.80
2019-01-06T17:50:20.352Z,29.73
2019-01-06T17:54:21.325Z,28.20
2019-01-06T17:58:09.550Z,32.07
2019-01-06T18:01:54.163Z,26.40
2019-01-06T18:05:41.689Z,26.90
2019-01-06T18:09:26.644Z,33.20
2019-01-06T18:13:09.563Z,31.70
2019-01-06T18:16:52.468Z,37.13
2019-01-06T18:20:42.783Z,32.93
2019-01-06T18:24:26.265Z,27.40
2019-01-06T18:28:09.464Z,33.90
2019-01-06T18:31:52.324Z,32.40
2019-01-06T18:35:35.495Z,28.97
2019-01-06T18:39:32.264Z,28.40
2019-01-06T18:43:19.867Z,31.70
2019-01-06T18:47:16.087Z,28.80
2019-01-06T18:51:06.323Z,30.47
2019-01-06T18:55:05.819Z,26.07
2019-01-06T18:58:48.676Z,32.63
2019-01-06T19:02:33.103Z,35.37
2019-01-06T19:06:26.889Z,35.77
2019-01-06T19:10:20.644Z,33.23
2019-01-06T19:14:19.973Z,34.17
2019-01-06T19:18:13.593Z,34.87
2019-01-06T19:22:04.314Z,30.67
2019-01-06T19:25:47.709Z,31.60
2019-01-06T19:29:40.106Z,36.30
2019-01-06T19:33:35.146Z,40.63
2019-01-06T19:37:18.763Z,33.77
2019-01-06T19:41:06.427Z,38.33
2019-01-06T19:45:00.880Z,33.77
2019-01-06T19:48:57.458Z,31.17
2019-01-06T19:52:40.657Z,33.10
2019-01-06T19:56:28.049Z,32.57
2019-01-06T20:00:27.769Z,30.17
2019-01-06T20:04:24.953Z,38.23
2019-01-06T20:08:18.787Z,33.73
2019-01-06T20:12:09.668Z,32.70
2019-01-06T20:16:05.965Z,35.43
2019-01-06T20:19:53.765Z,32.30
2019-01-06T20:23:38.451Z,30.87
2019-01-06T20:27:23.301Z,35.10
2019-01-06T20:31:16.963Z,31.97
2019-01-06T20:35:04.656Z,31.00
2019-01-06T20:38:47.725Z,32.03
2019-01-06T20:42:31.015Z,39.07
2019-01-06T20:46:13.847Z,36.17
2019-01-06T20:49:57.159Z,32.60
2019-01-06T20:53:54.406Z,35.03
2019-01-06T20:57:38.859Z,29.23
2019-01-06T21:01:22.616Z,32.87
2019-01-06T21:05:20.387Z,38.30
2019-01-06T21:09:04.186Z,37.67
2019-01-06T21:13:00.967Z,35.13
2019-01-06T21:16:44.215Z,38.40
2019-01-06T21:20:27.485Z,42.20
2019-01-06T21:24:10.776Z,36.83
2019-01-06T21:28:07.486Z,40.23
2019-01-06T21:31:54.831Z,35.47
2019-01-06T21:35:37.905Z,36.00
2019-01-06T21:39:15.608Z,33.50
2019-01-06T21:42:58.829Z,37.57
2019-01-06T21:46:38.084Z,40.90
2019-01-06T21:50:34.563Z,39.43
2019-01-06T21:54:19.284Z,34.57
2019-01-06T21:58:03.674Z,40.73
2019-01-06T22:02:00.150Z,35.57
2019-01-06T22:05:43.608Z,37.43
2019-01-06T22:09:28.499Z,40.90
2019-01-06T22:13:25.099Z,33.83
2019-01-06T22:17:12.338Z,42.17
2019-01-06T22:21:08.917Z,38.77
2019-01-06T22:25:08.802Z,38.50
2019-01-06T22:29:02.248Z,36.10
2019-01-06T22:32:46.689Z,36.70
2019-01-06T22:36:29.589Z,42.30
2019-01-06T22:40:12.681Z,42.97
2019-01-06T22:43:55.823Z,39.70
2019-01-06T22:47:38.630Z,43.00
2019-01-06T22:51:21.436Z,36.97
2019-01-06T22:55:04.532Z,45.83
2019-01-06T22:58:53.859Z,39.53
2019-01-06T23:02:34.763Z,39.73
2019-01-06T23:06:28.418Z,43.43
2019-01-06T23:10:21.886Z,40.10
2019-01-06T23:14:17.026Z,43.20
2019-01-06T23:18:16.421Z,41.13
2019-01-06T23:22:03.880Z,41.57
2019-01-06T23:25:55.020Z,43.93
2019-01-06T23:29:38.411Z,41.57
2019-01-06T23:33:21.196Z,46.40
2019-01-06T23:37:04.013Z,44.97
2019-01-06T23:40:47.057Z,42.10
2019-01-06T23:44:29.982Z,46.20
2019-01-06T23:48:14.426Z,45.83
2019-01-06T23:52:01.640Z,43.53
2019-01-06T23:55:44.668Z,43.40
2019-01-06T23:59:29.066Z,37.13
